sensor_id;sensor_type;location;lat;lon;timestamp;pressure;altitude;pressure_sealevel;temperature;humidity
78383;BME280;67668;52.294;4.692;2023-04-03T00:03:01;103202.03;;;7.50;61.50
78383;BME280;67668;52.294;4.692;2023-04-03T00:05:27;103203.94;;;7.46;61.56
78383;BME280;67668;52.294;4.692;2023-04-03T00:07:52;103210.16;;;7.45;60.52
78383;BME280;67668;52.294;4.692;2023-04-03T00:10:18;103205.00;;;7.42;62.12
78383;BME280;67668;52.294;4.692;2023-04-03T00:12:43;103201.50;;;7.42;61.92
78383;BME280;67668;52.294;4.692;2023-04-03T00:15:09;103206.94;;;7.37;60.79
78383;BME280;67668;52.294;4.692;2023-04-03T00:17:35;103207.88;;;7.36;61.53
78383;BME280;67668;52.294;4.692;2023-04-03T00:20:01;103208.00;;;7.33;59.57
78383;BME280;67668;52.294;4.692;2023-04-03T00:22:27;103200.34;;;7.27;59.93
78383;BME280;67668;52.294;4.692;2023-04-03T00:24:54;103204.88;;;7.23;60.93
78383;BME280;67668;52.294;4.692;2023-04-03T00:27:19;103206.66;;;7.23;60.88
78383;BME280;67668;52.294;4.692;2023-04-03T00:29:45;103212.91;;;7.20;59.98
78383;BME280;67668;52.294;4.692;2023-04-03T00:32:10;103210.28;;;7.20;61.19
78383;BME280;67668;52.294;4.692;2023-04-03T00:34:36;103207.66;;;7.20;61.38
78383;BME280;67668;52.294;4.692;2023-04-03T00:37:02;103214.69;;;7.20;60.70
78383;BME280;67668;52.294;4.692;2023-04-03T00:39:27;103218.34;;;7.16;60.26
78383;BME280;67668;52.294;4.692;2023-04-03T00:41:53;103220.19;;;7.14;61.33
78383;BME280;67668;52.294;4.692;2023-04-03T00:45:22;103225.53;;;7.12;62.64
78383;BME280;67668;52.294;4.692;2023-04-03T00:47:11;103229.00;;;7.13;61.85
78383;BME280;67668;52.294;4.692;2023-04-03T00:49:37;103222.91;;;7.12;62.43
78383;BME280;67668;52.294;4.692;2023-04-03T00:52:05;103224.59;;;7.13;61.90
78383;BME280;67668;52.294;4.692;2023-04-03T00:54:33;103227.25;;;7.13;62.29
78383;BME280;67668;52.294;4.692;2023-04-03T00:57:01;103220.31;;;7.11;61.74
78383;BME280;67668;52.294;4.692;2023-04-03T00:59:31;103226.56;;;7.08;62.01
78383;BME280;67668;52.294;4.692;2023-04-03T01:01:59;103223.00;;;7.09;62.22
78383;BME280;67668;52.294;4.692;2023-04-03T01:07:02;103225.88;;;7.03;61.00
78383;BME280;67668;52.294;4.692;2023-04-03T01:09:28;103222.47;;;7.01;61.22
78383;BME280;67668;52.294;4.692;2023-04-03T01:11:54;103226.09;;;6.99;62.17
78383;BME280;67668;52.294;4.692;2023-04-03T01:14:20;103232.25;;;6.98;61.12
78383;BME280;67668;52.294;4.692;2023-04-03T01:16:54;103234.09;;;6.96;59.41
78383;BME280;67668;52.294;4.692;2023-04-03T01:19:21;103233.41;;;6.91;59.20
78383;BME280;67668;52.294;4.692;2023-04-03T01:22:02;103231.03;;;6.85;60.67
78383;BME280;67668;52.294;4.692;2023-04-03T01:24:36;103232.78;;;6.84;60.75
78383;BME280;67668;52.294;4.692;2023-04-03T01:27:06;103238.22;;;6.80;61.49
78383;BME280;67668;52.294;4.692;2023-04-03T01:29:33;103238.28;;;6.78;60.06
78383;BME280;67668;52.294;4.692;2023-04-03T01:32:00;103234.13;;;6.72;59.62
78383;BME280;67668;52.294;4.692;2023-04-03T01:34:27;103231.72;;;6.66;59.86
78383;BME280;67668;52.294;4.692;2023-04-03T01:36:53;103239.72;;;6.63;61.22
78383;BME280;67668;52.294;4.692;2023-04-03T01:39:19;103236.22;;;6.63;60.58
78383;BME280;67668;52.294;4.692;2023-04-03T01:41:45;103233.66;;;6.61;61.32
78383;BME280;67668;52.294;4.692;2023-04-03T01:44:12;103228.56;;;6.57;60.46
78383;BME280;67668;52.294;4.692;2023-04-03T01:46:37;103231.28;;;6.55;62.19
78383;BME280;67668;52.294;4.692;2023-04-03T01:49:03;103226.00;;;6.55;61.97
78383;BME280;67668;52.294;4.692;2023-04-03T01:51:29;103226.00;;;6.55;61.91
78383;BME280;67668;52.294;4.692;2023-04-03T01:53:54;103231.41;;;6.52;62.17
78383;BME280;67668;52.294;4.692;2023-04-03T01:56:20;103228.00;;;6.49;61.60
78383;BME280;67668;52.294;4.692;2023-04-03T01:58:45;103223.81;;;6.43;60.42
78383;BME280;67668;52.294;4.692;2023-04-03T02:01:11;103225.69;;;6.40;60.90
78383;BME280;67668;52.294;4.692;2023-04-03T02:03:36;103225.94;;;6.34;60.87
78383;BME280;67668;52.294;4.692;2023-04-03T02:06:02;103228.63;;;6.32;62.07
78383;BME280;67668;52.294;4.692;2023-04-03T02:08:27;103221.72;;;6.30;61.88
78383;BME280;67668;52.294;4.692;2023-04-03T02:10:52;103227.03;;;6.28;62.51
78383;BME280;67668;52.294;4.692;2023-04-03T02:13:18;103231.38;;;6.29;63.07
78383;BME280;67668;52.294;4.692;2023-04-03T02:15:44;103228.75;;;6.29;62.58
78383;BME280;67668;52.294;4.692;2023-04-03T02:18:12;103233.06;;;6.30;62.20
78383;BME280;67668;52.294;4.692;2023-04-03T02:20:37;103235.81;;;6.27;62.86
78383;BME280;67668;52.294;4.692;2023-04-03T02:23:03;103239.41;;;6.24;61.80
78383;BME280;67668;52.294;4.692;2023-04-03T02:25:33;103234.22;;;6.23;63.30
78383;BME280;67668;52.294;4.692;2023-04-03T02:27:58;103229.81;;;6.23;62.79
78383;BME280;67668;52.294;4.692;2023-04-03T02:30:24;103244.75;;;6.23;63.25
78383;BME280;67668;52.294;4.692;2023-04-03T02:32:49;103249.06;;;6.24;63.87
78383;BME280;67668;52.294;4.692;2023-04-03T02:35:15;103244.63;;;6.26;63.94
78383;BME280;67668;52.294;4.692;2023-04-03T02:37:40;103247.19;;;6.28;63.69
78383;BME280;67668;52.294;4.692;2023-04-03T02:40:06;103254.19;;;6.29;63.22
78383;BME280;67668;52.294;4.692;2023-04-03T02:42:32;103254.09;;;6.30;63.95
78383;BME280;67668;52.294;4.692;2023-04-03T02:44:58;103249.78;;;6.29;63.88
78383;BME280;67668;52.294;4.692;2023-04-03T02:47:26;103259.38;;;6.30;64.36
78383;BME280;67668;52.294;4.692;2023-04-03T02:49:52;103259.38;;;6.30;63.70
78383;BME280;67668;52.294;4.692;2023-04-03T02:52:19;103253.28;;;6.30;64.64
78383;BME280;67668;52.294;4.692;2023-04-03T02:54:44;103261.22;;;6.28;64.54
78383;BME280;67668;52.294;4.692;2023-04-03T02:57:10;103262.94;;;6.29;64.76
78383;BME280;67668;52.294;4.692;2023-04-03T02:59:36;103256.69;;;6.32;64.60
78383;BME280;67668;52.294;4.692;2023-04-03T03:02:02;103262.88;;;6.31;64.66
78383;BME280;67668;52.294;4.692;2023-04-03T03:04:28;103262.88;;;6.31;64.92
78383;BME280;67668;52.294;4.692;2023-04-03T03:06:53;103261.97;;;6.32;64.68
78383;BME280;67668;52.294;4.692;2023-04-03T03:09:19;103257.69;;;6.29;65.33
78383;BME280;67668;52.294;4.692;2023-04-03T03:11:44;103268.09;;;6.32;65.11
78383;BME280;67668;52.294;4.692;2023-04-03T03:14:10;103269.00;;;6.31;64.79
78383;BME280;67668;52.294;4.692;2023-04-03T03:16:35;103275.09;;;6.32;64.51
78383;BME280;67668;52.294;4.692;2023-04-03T03:19:01;103269.00;;;6.31;64.89
78383;BME280;67668;52.294;4.692;2023-04-03T03:21:26;103275.16;;;6.30;64.49
78383;BME280;67668;52.294;4.692;2023-04-03T03:23:51;103277.78;;;6.30;64.85
78383;BME280;67668;52.294;4.692;2023-04-03T03:26:17;103281.34;;;6.29;65.46
78383;BME280;67668;52.294;4.692;2023-04-03T03:28:42;103276.09;;;6.29;65.10
78383;BME280;67668;52.294;4.692;2023-04-03T03:31:08;103277.84;;;6.29;65.32
78383;BME280;67668;52.294;4.692;2023-04-03T03:33:33;103277.84;;;6.29;65.08
78383;BME280;67668;52.294;4.692;2023-04-03T03:36:00;103269.09;;;6.28;64.63
78383;BME280;67668;52.294;4.692;2023-04-03T03:38:25;103277.00;;;6.28;65.21
78383;BME280;67668;52.294;4.692;2023-04-03T03:40:51;103281.47;;;6.26;65.54
78383;BME280;67668;52.294;4.692;2023-04-03T03:43:17;103278.88;;;6.24;65.87
78383;BME280;67668;52.294;4.692;2023-04-03T03:45:42;103272.75;;;6.24;65.26
78383;BME280;67668;52.294;4.692;2023-04-03T03:48:08;103273.69;;;6.23;65.28
78383;BME280;67668;52.294;4.692;2023-04-03T03:50:33;103261.47;;;6.20;64.94
78383;BME280;67668;52.294;4.692;2023-04-03T03:52:59;103269.44;;;6.19;65.68
78383;BME280;67668;52.294;4.692;2023-04-03T03:55:24;103270.38;;;6.16;64.27
78383;BME280;67668;52.294;4.692;2023-04-03T03:57:50;103267.97;;;6.10;64.36
78383;BME280;67668;52.294;4.692;2023-04-03T04:00:15;103272.47;;;6.07;65.78
78383;BME280;67668;52.294;4.692;2023-04-03T04:02:41;103275.16;;;6.05;65.82
78383;BME280;67668;52.294;4.692;2023-04-03T04:05:07;103276.94;;;6.05;65.75
78383;BME280;67668;52.294;4.692;2023-04-03T04:07:33;103283.91;;;6.06;66.32
78383;BME280;67668;52.294;4.692;2023-04-03T04:09:58;103277.78;;;6.05;66.39
78383;BME280;67668;52.294;4.692;2023-04-03T04:12:24;103285.63;;;6.07;66.49
78383;BME280;67668;52.294;4.692;2023-04-03T04:14:49;103282.97;;;6.07;66.47
78383;BME280;67668;52.294;4.692;2023-04-03T04:17:14;103282.97;;;6.07;65.84
78383;BME280;67668;52.294;4.692;2023-04-03T04:19:40;103281.28;;;6.06;66.06
78383;BME280;67668;52.294;4.692;2023-04-03T04:22:05;103282.97;;;6.07;66.05
78383;BME280;67668;52.294;4.692;2023-04-03T04:24:31;103277.78;;;6.05;66.08
78383;BME280;67668;52.294;4.692;2023-04-03T04:26:56;103283.06;;;6.05;66.73
78383;BME280;67668;52.294;4.692;2023-04-03T04:29:22;103294.44;;;6.06;66.12
78383;BME280;67668;52.294;4.692;2023-04-03T04:31:47;103280.47;;;6.04;66.43
78383;BME280;67668;52.294;4.692;2023-04-03T04:34:13;103279.59;;;6.03;66.23
78383;BME280;67668;52.294;4.692;2023-04-03T04:36:39;103292.75;;;6.03;65.70
78383;BME280;67668;52.294;4.692;2023-04-03T04:39:05;103292.84;;;6.00;66.08
78383;BME280;67668;52.294;4.692;2023-04-03T04:41:30;103293.72;;;6.01;66.30
78383;BME280;67668;52.294;4.692;2023-04-03T04:43:56;103294.66;;;6.00;66.31
78383;BME280;67668;52.294;4.692;2023-04-03T04:46:22;103286.75;;;6.00;66.07
78383;BME280;67668;52.294;4.692;2023-04-03T04:48:47;103293.78;;;5.99;66.42
78383;BME280;67668;52.294;4.692;2023-04-03T04:51:13;103293.81;;;5.98;66.02
78383;BME280;67668;52.294;4.692;2023-04-03T04:53:39;103290.31;;;5.97;66.00
78383;BME280;67668;52.294;4.692;2023-04-03T04:56:04;103299.19;;;5.95;66.40
78383;BME280;67668;52.294;4.692;2023-04-03T04:58:30;103302.72;;;5.94;66.26
78383;BME280;67668;52.294;4.692;2023-04-03T05:01:00;103302.81;;;5.91;66.35
78383;BME280;67668;52.294;4.692;2023-04-03T05:03:25;103298.50;;;5.90;66.40
78383;BME280;67668;52.294;4.692;2023-04-03T05:05:51;103307.28;;;5.89;66.18
78383;BME280;67668;52.294;4.692;2023-04-03T05:08:16;103307.28;;;5.89;65.58
78383;BME280;67668;52.294;4.692;2023-04-03T05:10:42;103315.25;;;5.86;66.01
78383;BME280;67668;52.294;4.692;2023-04-03T05:13:07;103313.56;;;5.83;65.36
78383;BME280;67668;52.294;4.692;2023-04-03T05:15:33;103315.53;;;5.77;66.08
78383;BME280;67668;52.294;4.692;2023-04-03T05:17:58;103313.06;;;5.72;66.83
78383;BME280;67668;52.294;4.692;2023-04-03T05:20:24;103320.06;;;5.71;65.93
78383;BME280;67668;52.294;4.692;2023-04-03T05:22:50;103328.97;;;5.67;65.82
78383;BME280;67668;52.294;4.692;2023-04-03T05:25:15;103334.31;;;5.64;66.26
78383;BME280;67668;52.294;4.692;2023-04-03T05:27:40;103323.88;;;5.63;65.58
78383;BME280;67668;52.294;4.692;2023-04-03T05:30:06;103312.59;;;5.59;65.43
78383;BME280;67668;52.294;4.692;2023-04-03T05:32:32;103323.34;;;5.52;64.51
78383;BME280;67668;52.294;4.692;2023-04-03T05:34:57;103326.19;;;5.44;65.26
78383;BME280;67668;52.294;4.692;2023-04-03T05:37:23;103322.09;;;5.36;64.73
78383;BME280;67668;52.294;4.692;2023-04-03T05:39:48;103323.19;;;5.29;65.06
78383;BME280;67668;52.294;4.692;2023-04-03T05:42:15;103322.41;;;5.27;66.37
78383;BME280;67668;52.294;4.692;2023-04-03T05:44:41;103325.94;;;5.24;65.88
78383;BME280;67668;52.294;4.692;2023-04-03T05:47:06;103331.34;;;5.19;65.42
78383;BME280;67668;52.294;4.692;2023-04-03T05:49:32;103331.44;;;5.16;66.45
78383;BME280;67668;52.294;4.692;2023-04-03T05:51:57;103330.69;;;5.13;65.99
78383;BME280;67668;52.294;4.692;2023-04-03T05:54:28;103331.69;;;5.09;65.60
78383;BME280;67668;52.294;4.692;2023-04-03T05:56:53;103338.81;;;5.04;65.54
78383;BME280;67668;52.294;4.692;2023-04-03T05:59:19;103347.72;;;4.98;65.66
78383;BME280;67668;52.294;4.692;2023-04-03T06:01:45;103346.19;;;4.91;65.23
78383;BME280;67668;52.294;4.692;2023-04-03T06:04:11;103348.09;;;4.86;65.50
78383;BME280;67668;52.294;4.692;2023-04-03T06:06:50;103349.09;;;4.81;65.84
78383;BME280;67668;52.294;4.692;2023-04-03T06:09:21;103346.56;;;4.78;65.42
78383;BME280;67668;52.294;4.692;2023-04-03T06:11:46;103349.25;;;4.76;65.66
78383;BME280;67668;52.294;4.692;2023-04-03T06:14:12;103350.22;;;4.74;65.95
78383;BME280;67668;52.294;4.692;2023-04-03T06:16:38;103359.69;;;4.78;66.14
78383;BME280;67668;52.294;4.692;2023-04-03T06:19:05;103350.91;;;4.79;66.26
78383;BME280;67668;52.294;4.692;2023-04-03T06:21:32;103346.53;;;4.79;65.92
78383;BME280;67668;52.294;4.692;2023-04-03T06:23:57;103350.13;;;4.77;66.41
78383;BME280;67668;52.294;4.692;2023-04-03T06:26:23;103355.38;;;4.77;66.13
78383;BME280;67668;52.294;4.692;2023-04-03T06:28:48;103357.94;;;4.78;65.85
78383;BME280;67668;52.294;4.692;2023-04-03T06:31:14;103364.94;;;4.78;65.89
78383;BME280;67668;52.294;4.692;2023-04-03T06:33:39;103363.16;;;4.80;66.62
78383;BME280;67668;52.294;4.692;2023-04-03T06:36:05;103364.94;;;4.78;65.65
78383;BME280;67668;52.294;4.692;2023-04-03T06:38:32;103359.69;;;4.78;65.79
78383;BME280;67668;52.294;4.692;2023-04-03T06:40:58;103364.09;;;4.77;66.01
78383;BME280;67668;52.294;4.692;2023-04-03T06:43:24;103372.78;;;4.79;65.90
78383;BME280;67668;52.294;4.692;2023-04-03T06:45:49;103370.94;;;4.81;65.48
78383;BME280;67668;52.294;4.692;2023-04-03T06:48:16;103365.63;;;4.84;65.89
78383;BME280;67668;52.294;4.692;2023-04-03T06:50:41;103376.88;;;4.88;65.61
78383;BME280;67668;52.294;4.692;2023-04-03T06:53:06;103372.31;;;4.94;65.87
78383;BME280;67668;52.294;4.692;2023-04-03T06:55:32;103376.56;;;5.00;65.29
78383;BME280;67668;52.294;4.692;2023-04-03T06:57:58;103377.34;;;5.03;65.26
78383;BME280;67668;52.294;4.692;2023-04-03T07:00:23;103374.56;;;5.08;64.96
78383;BME280;67668;52.294;4.692;2023-04-03T07:02:50;103380.50;;;5.14;65.33
78383;BME280;67668;52.294;4.692;2023-04-03T07:05:15;103383.72;;;5.24;65.61
78383;BME280;67668;52.294;4.692;2023-04-03T07:07:41;103384.34;;;5.32;65.29
78383;BME280;67668;52.294;4.692;2023-04-03T07:10:07;103389.31;;;5.41;64.92
78383;BME280;67668;52.294;4.692;2023-04-03T07:12:32;103383.78;;;5.50;64.19
78383;BME280;67668;52.294;4.692;2023-04-03T07:14:58;103388.78;;;5.59;63.68
78383;BME280;67668;52.294;4.692;2023-04-03T07:17:24;103403.34;;;5.69;63.82
78383;BME280;67668;52.294;4.692;2023-04-03T07:19:50;103404.81;;;5.78;62.84
78383;BME280;67668;52.294;4.692;2023-04-03T07:22:16;103395.81;;;5.87;62.03
78383;BME280;67668;52.294;4.692;2023-04-03T07:24:42;103405.13;;;5.97;62.84
78383;BME280;67668;52.294;4.692;2023-04-03T07:27:07;103400.38;;;6.08;63.05
78383;BME280;67668;52.294;4.692;2023-04-03T07:29:34;103400.91;;;6.19;62.37
78383;BME280;67668;52.294;4.692;2023-04-03T07:32:00;103403.19;;;6.30;62.12
78383;BME280;67668;52.294;4.692;2023-04-03T07:34:25;103400.16;;;6.40;62.34
78383;BME280;67668;52.294;4.692;2023-04-03T07:36:51;103408.56;;;6.51;62.07
78383;BME280;67668;52.294;4.692;2023-04-03T07:39:16;103396.91;;;6.58;60.39
78383;BME280;67668;52.294;4.692;2023-04-03T07:41:42;103413.22;;;6.68;60.04
78383;BME280;67668;52.294;4.692;2023-04-03T07:44:07;103418.13;;;6.79;60.77
78383;BME280;67668;52.294;4.692;2023-04-03T07:46:35;103418.59;;;6.90;60.57
78383;BME280;67668;52.294;4.692;2023-04-03T07:49:00;103420.78;;;7.02;59.61
78383;BME280;67668;52.294;4.692;2023-04-03T07:51:26;103422.94;;;7.15;60.01
78383;BME280;67668;52.294;4.692;2023-04-03T07:53:53;103423.31;;;7.28;59.66
78383;BME280;67668;52.294;4.692;2023-04-03T07:56:19;103429.91;;;7.40;59.62
78383;BME280;67668;52.294;4.692;2023-04-03T07:58:45;103420.72;;;7.50;58.02
78383;BME280;67668;52.294;4.692;2023-04-03T08:01:11;103425.59;;;7.60;58.44
78383;BME280;67668;52.294;4.692;2023-04-03T08:03:38;103426.81;;;7.73;59.70
78383;BME280;67668;52.294;4.692;2023-04-03T08:06:06;103428.13;;;7.85;58.21
78383;BME280;67668;52.294;4.692;2023-04-03T08:08:32;103431.25;;;7.95;57.70
78383;BME280;67668;52.294;4.692;2023-04-03T08:10:59;103429.03;;;8.06;57.86
78383;BME280;67668;52.294;4.692;2023-04-03T08:13:25;103430.25;;;8.19;58.16
78383;BME280;67668;52.294;4.692;2023-04-03T08:15:51;103432.34;;;8.32;57.09
78383;BME280;67668;52.294;4.692;2023-04-03T08:18:17;103447.81;;;8.42;55.69
78383;BME280;67668;52.294;4.692;2023-04-03T08:20:43;103430.59;;;8.53;56.19
78383;BME280;67668;52.294;4.692;2023-04-03T08:23:09;103423.88;;;8.66;56.63
78383;BME280;67668;52.294;4.692;2023-04-03T08:25:41;103431.25;;;8.78;55.78
78383;BME280;67668;52.294;4.692;2023-04-03T08:28:07;103427.28;;;8.89;56.10
78383;BME280;67668;52.294;4.692;2023-04-03T08:30:33;103432.91;;;9.01;54.63
78383;BME280;67668;52.294;4.692;2023-04-03T08:33:03;103433.94;;;9.17;56.33
78383;BME280;67668;52.294;4.692;2023-04-03T08:35:28;103438.72;;;9.28;55.45
78383;BME280;67668;52.294;4.692;2023-04-03T08:37:54;103443.38;;;9.42;54.56
78383;BME280;67668;52.294;4.692;2023-04-03T08:40:20;103441.97;;;9.53;53.30
78383;BME280;67668;52.294;4.692;2023-04-03T08:42:54;103454.59;;;9.65;53.84
78383;BME280;67668;52.294;4.692;2023-04-03T08:48:15;103460.72;;;9.84;50.52
78383;BME280;67668;52.294;4.692;2023-04-03T08:50:43;103469.88;;;9.96;52.14
78383;BME280;67668;52.294;4.692;2023-04-03T08:53:20;103450.53;;;10.13;52.07
78383;BME280;67668;52.294;4.692;2023-04-03T08:55:49;103454.88;;;10.32;52.60
78383;BME280;67668;52.294;4.692;2023-04-03T08:58:18;103448.81;;;10.48;50.42
78383;BME280;67668;52.294;4.692;2023-04-03T09:00:48;103436.22;;;10.53;48.36
78383;BME280;67668;52.294;4.692;2023-04-03T09:03:17;103444.47;;;10.64;49.34
78383;BME280;67668;52.294;4.692;2023-04-03T09:06:14;103453.34;;;10.80;49.63
78383;BME280;67668;52.294;4.692;2023-04-03T09:08:45;103435.78;;;10.95;49.72
78383;BME280;67668;52.294;4.692;2023-04-03T09:11:23;103439.66;;;11.05;47.52
78383;BME280;67668;52.294;4.692;2023-04-03T09:14:01;103429.59;;;11.11;45.12
78383;BME280;67668;52.294;4.692;2023-04-03T09:16:50;103436.13;;;11.21;44.39
78383;BME280;67668;52.294;4.692;2023-04-03T09:22:13;103430.53;;;11.43;45.30
78383;BME280;67668;52.294;4.692;2023-04-03T09:24:44;103422.97;;;11.51;44.32
78383;BME280;67668;52.294;4.692;2023-04-03T09:27:11;103433.88;;;11.62;42.38
78383;BME280;67668;52.294;4.692;2023-04-03T09:29:42;103428.81;;;11.73;42.57
78383;BME280;67668;52.294;4.692;2023-04-03T09:32:30;103428.59;;;11.78;42.02
78383;BME280;67668;52.294;4.692;2023-04-03T09:34:57;103418.59;;;11.83;43.04
78383;BME280;67668;52.294;4.692;2023-04-03T09:37:37;103418.97;;;11.91;42.33
78383;BME280;67668;52.294;4.692;2023-04-03T09:40:04;103426.91;;;12.07;43.98
78383;BME280;67668;52.294;4.692;2023-04-03T09:42:32;103427.78;;;12.23;42.32
78383;BME280;67668;52.294;4.692;2023-04-03T09:45:03;103415.38;;;12.37;44.13
78383;BME280;67668;52.294;4.692;2023-04-03T09:47:34;103425.13;;;12.53;42.20
78383;BME280;67668;52.294;4.692;2023-04-03T09:52:45;103397.41;;;12.57;41.26
78383;BME280;67668;52.294;4.692;2023-04-03T09:55:48;103392.56;;;12.63;40.69
78383;BME280;67668;52.294;4.692;2023-04-03T09:58:23;103396.00;;;12.79;40.76
78383;BME280;67668;52.294;4.692;2023-04-03T10:01:00;103395.34;;;12.90;40.65
78383;BME280;67668;52.294;4.692;2023-04-03T10:03:33;103386.44;;;12.91;39.33
78383;BME280;67668;52.294;4.692;2023-04-03T10:06:22;103384.16;;;12.99;39.78
78383;BME280;67668;52.294;4.692;2023-04-03T10:09:04;103393.22;;;13.11;40.21
78383;BME280;67668;52.294;4.692;2023-04-03T10:11:30;103380.19;;;13.20;40.72
78383;BME280;67668;52.294;4.692;2023-04-03T10:14:00;103380.66;;;13.27;36.56
78383;BME280;67668;52.294;4.692;2023-04-03T10:16:41;103390.91;;;13.33;38.14
78383;BME280;67668;52.294;4.692;2023-04-03T10:21:46;103383.06;;;13.58;38.22
78383;BME280;67668;52.294;4.692;2023-04-03T10:24:28;103388.84;;;13.65;35.36
78383;BME280;67668;52.294;4.692;2023-04-03T10:33:07;103376.69;;;13.87;34.85
78383;BME280;67668;52.294;4.692;2023-04-03T10:35:53;103378.28;;;13.90;35.95
78383;BME280;67668;52.294;4.692;2023-04-03T10:38:31;103371.41;;;14.00;38.13
78383;BME280;67668;52.294;4.692;2023-04-03T10:41:15;103373.25;;;14.12;35.94
78383;BME280;67668;52.294;4.692;2023-04-03T10:43:56;103372.31;;;14.26;37.61
78383;BME280;67668;52.294;4.692;2023-04-03T10:49:21;103358.97;;;14.53;35.22
78383;BME280;67668;52.294;4.692;2023-04-03T10:52:00;103362.47;;;14.53;34.14
78383;BME280;67668;52.294;4.692;2023-04-03T10:54:42;103365.78;;;14.57;34.16
78383;BME280;67668;52.294;4.692;2023-04-03T10:57:12;103370.25;;;14.56;34.47
78383;BME280;67668;52.294;4.692;2023-04-03T10:59:47;103369.09;;;14.60;34.74
78383;BME280;67668;52.294;4.692;2023-04-03T11:02:27;103361.31;;;14.70;33.88
78383;BME280;67668;52.294;4.692;2023-04-03T11:05:03;103363.53;;;14.76;32.87
78383;BME280;67668;52.294;4.692;2023-04-03T11:07:38;103358.63;;;14.82;32.99
78383;BME280;67668;52.294;4.692;2023-04-03T11:10:11;103358.53;;;14.84;32.87
78383;BME280;67668;52.294;4.692;2023-04-03T11:12:46;103365.56;;;14.85;31.38
78383;BME280;67668;52.294;4.692;2023-04-03T11:15:15;103361.50;;;14.79;31.33
78383;BME280;67668;52.294;4.692;2023-04-03T11:17:46;103357.13;;;14.78;31.33
78383;BME280;67668;52.294;4.692;2023-04-03T11:20:20;103360.56;;;14.80;31.57
78383;BME280;67668;52.294;4.692;2023-04-03T11:22:58;103348.50;;;14.87;31.29
78383;BME280;67668;52.294;4.692;2023-04-03T11:25:25;103347.84;;;14.96;30.60
78383;BME280;67668;52.294;4.692;2023-04-03T11:28:03;103350.41;;;15.11;31.22
78383;BME280;67668;52.294;4.692;2023-04-03T11:30:33;103343.34;;;15.10;30.45
78383;BME280;67668;52.294;4.692;2023-04-03T11:33:40;103334.63;;;15.08;30.30
78383;BME280;67668;52.294;4.692;2023-04-03T11:36:18;103330.75;;;15.12;28.17
78383;BME280;67668;52.294;4.692;2023-04-03T11:38:47;103327.75;;;15.16;29.69
78383;BME280;67668;52.294;4.692;2023-04-03T11:41:14;103325.59;;;15.21;30.25
78383;BME280;67668;52.294;4.692;2023-04-03T11:43:43;103330.72;;;15.24;28.70
78383;BME280;67668;52.294;4.692;2023-04-03T11:46:20;103332.59;;;15.35;30.30
78383;BME280;67668;52.294;4.692;2023-04-03T11:48:48;103318.28;;;15.36;30.61
78383;BME280;67668;52.294;4.692;2023-04-03T11:53:42;103315.78;;;15.22;28.00
78383;BME280;67668;52.294;4.692;2023-04-03T12:01:45;103295.69;;;15.29;29.39
78383;BME280;67668;52.294;4.692;2023-04-03T12:04:12;103290.25;;;15.30;29.38
78383;BME280;67668;52.294;4.692;2023-04-03T12:12:39;103289.22;;;15.20;27.76
78383;BME280;67668;52.294;4.692;2023-04-03T12:15:23;103280.59;;;15.17;28.48
78383;BME280;67668;52.294;4.692;2023-04-03T12:17:50;103282.72;;;15.24;28.59
78383;BME280;67668;52.294;4.692;2023-04-03T12:23:36;103279.22;;;15.35;29.04
78383;BME280;67668;52.294;4.692;2023-04-03T12:26:22;103268.00;;;15.42;29.50
78383;BME280;67668;52.294;4.692;2023-04-03T12:28:53;103260.81;;;15.56;29.11
78383;BME280;67668;52.294;4.692;2023-04-03T12:31:20;103272.00;;;15.61;28.04
78383;BME280;67668;52.294;4.692;2023-04-03T12:36:58;103256.13;;;15.46;29.07
78383;BME280;67668;52.294;4.692;2023-04-03T12:42:52;103249.06;;;15.45;26.74
78383;BME280;67668;52.294;4.692;2023-04-03T12:45:25;103238.31;;;15.47;26.74
78383;BME280;67668;52.294;4.692;2023-04-03T12:47:53;103234.97;;;15.56;28.15
78383;BME280;67668;52.294;4.692;2023-04-03T12:50:28;103251.28;;;15.64;28.33
78383;BME280;67668;52.294;4.692;2023-04-03T12:53:04;103246.03;;;15.63;28.36
78383;BME280;67668;52.294;4.692;2023-04-03T12:55:30;103247.13;;;15.60;28.80
78383;BME280;67668;52.294;4.692;2023-04-03T12:57:56;103240.78;;;15.61;29.10
78383;BME280;67668;52.294;4.692;2023-04-03T13:02:51;103237.94;;;15.64;28.60
78383;BME280;67668;52.294;4.692;2023-04-03T13:05:18;103246.81;;;15.76;29.03
78383;BME280;67668;52.294;4.692;2023-04-03T13:07:49;103235.06;;;15.89;29.05
78383;BME280;67668;52.294;4.692;2023-04-03T13:10:17;103243.22;;;15.99;28.67
78383;BME280;67668;52.294;4.692;2023-04-03T13:12:51;103239.50;;;16.13;29.73
78383;BME280;67668;52.294;4.692;2023-04-03T13:15:19;103235.47;;;16.18;28.91
78383;BME280;67668;52.294;4.692;2023-04-03T13:17:45;103242.41;;;16.21;30.64
78383;BME280;67668;52.294;4.692;2023-04-03T13:20:32;103233.66;;;16.19;29.76
78383;BME280;67668;52.294;4.692;2023-04-03T13:23:03;103224.06;;;16.16;28.78
78383;BME280;67668;52.294;4.692;2023-04-03T13:25:33;103225.88;;;16.16;28.91
78383;BME280;67668;52.294;4.692;2023-04-03T13:28:00;103212.41;;;16.06;26.94
78383;BME280;67668;52.294;4.692;2023-04-03T13:30:30;103217.03;;;16.04;28.40
78383;BME280;67668;52.294;4.692;2023-04-03T13:32:58;103218.09;;;16.01;29.00
78383;BME280;67668;52.294;4.692;2023-04-03T13:35:28;103213.88;;;16.10;28.41
78383;BME280;67668;52.294;4.692;2023-04-03T13:38:00;103215.91;;;16.18;28.91
78383;BME280;67668;52.294;4.692;2023-04-03T13:40:26;103220.06;;;16.22;29.18
78383;BME280;67668;52.294;4.692;2023-04-03T13:43:14;103208.03;;;16.27;29.90
78383;BME280;67668;52.294;4.692;2023-04-03T13:46:00;103220.94;;;16.33;30.32
78383;BME280;67668;52.294;4.692;2023-04-03T13:48:36;103205.75;;;16.34;28.91
78383;BME280;67668;52.294;4.692;2023-04-03T13:51:05;103217.88;;;16.38;29.86
78383;BME280;67668;52.294;4.692;2023-04-03T13:53:33;103227.13;;;16.34;28.97
78383;BME280;67668;52.294;4.692;2023-04-03T13:56:09;103217.38;;;16.22;29.32